createdAt,value
2023-10-24T00:00:01.500Z,0.00
2023-10-24T00:01:01.436Z,0.00
2023-10-24T00:02:01.544Z,0.00
2023-10-24T00:03:01.525Z,0.00
2023-10-24T00:04:01.474Z,0.00
2023-10-24T00:05:01.442Z,0.00
2023-10-24T00:06:01.401Z,0.00
2023-10-24T00:07:01.388Z,0.00
2023-10-24T00:08:01.410Z,0.00
2023-10-24T00:09:01.391Z,0.00
2023-10-24T00:10:01.368Z,0.00
2023-10-24T00:11:01.388Z,0.00
2023-10-24T00:12:01.357Z,0.00
2023-10-24T00:13:01.414Z,0.00
2023-10-24T00:14:01.336Z,0.00
2023-10-24T00:15:01.360Z,0.00
2023-10-24T00:16:01.408Z,0.00
2023-10-24T00:17:01.435Z,0.00
2023-10-24T00:18:01.370Z,0.00
2023-10-24T00:19:01.307Z,0.00
2023-10-24T00:20:01.299Z,0.00
2023-10-24T00:21:01.298Z,0.00
2023-10-24T00:22:01.287Z,0.00
2023-10-24T00:23:01.295Z,0.00
2023-10-24T00:24:01.316Z,0.00
2023-10-24T00:25:01.272Z,0.00
2023-10-24T00:26:01.261Z,0.00
2023-10-24T00:27:01.281Z,0.00
2023-10-24T00:28:01.261Z,0.00
2023-10-24T00:29:01.244Z,0.00
2023-10-24T00:30:01.203Z,0.00
2023-10-24T00:31:01.229Z,0.00
2023-10-24T00:32:01.346Z,0.00
2023-10-24T00:33:01.283Z,0.00
2023-10-24T00:34:01.194Z,0.00
2023-10-24T00:35:01.168Z,0.00
2023-10-24T00:36:02.176Z,0.00
2023-10-24T00:37:01.208Z,0.00
2023-10-24T00:38:01.156Z,0.00
2023-10-24T00:39:01.194Z,0.00
2023-10-24T00:40:01.153Z,0.00
2023-10-24T00:41:01.162Z,0.00
2023-10-24T00:42:01.159Z,0.00
2023-10-24T00:43:01.138Z,0.00
2023-10-24T00:44:01.118Z,0.00
2023-10-24T00:45:01.163Z,0.00
2023-10-24T00:46:01.181Z,0.00
2023-10-24T00:47:01.152Z,0.00
2023-10-24T00:48:01.104Z,0.00
2023-10-24T00:49:01.082Z,0.00
2023-10-24T00:50:01.124Z,0.00
2023-10-24T00:51:01.088Z,0.00
2023-10-24T00:52:01.078Z,0.00
2023-10-24T00:53:01.074Z,0.00
2023-10-24T00:54:01.048Z,0.00
2023-10-24T00:55:01.058Z,0.00
2023-10-24T00:56:01.088Z,0.00
2023-10-24T00:57:01.024Z,0.00
2023-10-24T00:58:01.026Z,0.00
2023-10-24T00:59:01.045Z,0.00
2023-10-24T01:00:01.034Z,0.00
2023-10-24T01:01:01.071Z,0.00
2023-10-24T01:02:01.099Z,0.00
2023-10-24T01:03:01.235Z,0.00
2023-10-24T01:04:01.050Z,0.00
2023-10-24T01:05:01.070Z,0.00
2023-10-24T01:06:00.981Z,0.00
2023-10-24T01:07:00.979Z,0.00
2023-10-24T01:08:00.928Z,0.00
2023-10-24T01:09:00.943Z,0.00
2023-10-24T01:10:01.098Z,0.00
2023-10-24T01:11:00.933Z,0.00
2023-10-24T01:12:00.941Z,0.00
2023-10-24T01:13:00.920Z,0.00
2023-10-24T01:14:00.944Z,0.00
2023-10-24T01:15:00.929Z,0.00
2023-10-24T01:16:00.970Z,0.00
2023-10-24T01:17:00.908Z,0.00
2023-10-24T01:18:00.997Z,0.00
2023-10-24T01:19:00.939Z,0.00
2023-10-24T01:20:00.983Z,0.00
2023-10-24T01:21:00.897Z,0.00
2023-10-24T01:22:00.941Z,0.00
2023-10-24T01:23:00.930Z,0.00
2023-10-24T01:24:00.962Z,0.00
2023-10-24T01:25:00.818Z,0.00
2023-10-24T01:26:00.808Z,0.00
2023-10-24T01:27:00.804Z,0.00
2023-10-24T01:28:00.934Z,0.00
2023-10-24T01:29:00.793Z,0.00
2023-10-24T01:30:00.880Z,0.00
2023-10-24T01:31:00.770Z,0.00
2023-10-24T01:32:00.874Z,0.00
2023-10-24T01:33:00.841Z,0.00
2023-10-24T01:34:00.765Z,0.00
2023-10-24T01:35:00.757Z,0.00
2023-10-24T01:36:00.746Z,0.00
2023-10-24T01:37:00.739Z,0.00
2023-10-24T01:38:00.756Z,0.00
2023-10-24T01:39:00.716Z,0.00
2023-10-24T01:40:00.720Z,0.00
2023-10-24T01:41:00.692Z,0.00
2023-10-24T01:42:00.730Z,0.00
2023-10-24T01:43:00.701Z,0.00
2023-10-24T01:44:00.670Z,0.00
2023-10-24T01:45:00.673Z,0.00
2023-10-24T01:46:00.689Z,0.00
2023-10-24T01:47:00.671Z,0.00
2023-10-24T01:48:00.676Z,0.00
2023-10-24T01:49:00.660Z,0.00
2023-10-24T01:50:00.626Z,0.00
2023-10-24T01:51:00.630Z,0.00
2023-10-24T01:52:00.665Z,0.00
2023-10-24T01:53:00.604Z,0.00
2023-10-24T01:54:00.612Z,0.00
2023-10-24T01:55:00.590Z,0.00
2023-10-24T01:56:00.585Z,0.00
2023-10-24T01:57:00.609Z,0.00
2023-10-24T01:58:00.586Z,0.00
2023-10-24T01:59:00.585Z,0.00
2023-10-24T02:00:00.574Z,0.00
2023-10-24T02:01:00.593Z,0.00
2023-10-24T02:02:00.726Z,0.00
2023-10-24T02:03:00.570Z,0.00
2023-10-24T02:04:00.560Z,0.00
2023-10-24T02:05:00.566Z,0.00
2023-10-24T02:06:00.577Z,0.00
2023-10-24T02:07:00.503Z,0.00
2023-10-24T02:08:00.485Z,0.00
2023-10-24T02:09:00.477Z,0.00
2023-10-24T02:10:00.509Z,0.00
2023-10-24T02:11:00.531Z,0.00
2023-10-24T02:12:00.460Z,0.00
2023-10-24T02:13:00.461Z,0.00
2023-10-24T02:14:00.462Z,0.00
2023-10-24T02:15:00.442Z,0.00
2023-10-24T02:16:00.483Z,0.00
2023-10-24T02:17:00.413Z,0.00
2023-10-24T02:18:00.463Z,0.00
2023-10-24T02:19:00.400Z,0.00
2023-10-24T02:20:00.413Z,0.00
2023-10-24T02:21:00.434Z,0.00
2023-10-24T02:22:00.383Z,0.00
2023-10-24T02:23:00.387Z,0.00
2023-10-24T02:24:00.358Z,0.00
2023-10-24T02:25:00.386Z,0.00
2023-10-24T02:26:00.355Z,0.00
2023-10-24T02:27:00.346Z,0.00
2023-10-24T02:28:00.317Z,0.00
2023-10-24T02:29:00.321Z,0.00
2023-10-24T02:30:00.400Z,0.00
2023-10-24T02:31:00.334Z,0.00
2023-10-24T02:32:00.490Z,0.00
2023-10-24T02:33:00.397Z,0.00
2023-10-24T02:34:00.312Z,0.00
2023-10-24T02:35:00.303Z,0.00
2023-10-24T02:36:00.272Z,0.00
2023-10-24T02:37:00.267Z,0.00
2023-10-24T02:38:00.255Z,0.00
2023-10-24T02:39:00.273Z,0.00
2023-10-24T02:40:00.341Z,0.00
2023-10-24T02:41:00.234Z,0.00
2023-10-24T02:42:00.215Z,0.00
2023-10-24T02:43:00.206Z,0.00
2023-10-24T02:44:00.218Z,0.00
2023-10-24T02:45:00.238Z,0.00
2023-10-24T02:46:00.183Z,0.00
2023-10-24T02:47:00.276Z,0.00
2023-10-24T02:48:00.205Z,0.00
2023-10-24T02:49:00.184Z,0.00
2023-10-24T02:50:01.236Z,0.00
2023-10-24T02:51:00.148Z,0.00
2023-10-24T02:52:00.140Z,0.00
2023-10-24T02:53:00.172Z,0.00
2023-10-24T02:54:00.161Z,0.00
2023-10-24T02:55:00.158Z,0.00
2023-10-24T02:56:00.144Z,0.00
2023-10-24T02:57:00.111Z,0.00
2023-10-24T02:58:00.130Z,0.00
2023-10-24T02:59:00.106Z,0.00
2023-10-24T03:00:00.108Z,0.00
2023-10-24T03:01:00.137Z,0.00
2023-10-24T03:02:00.138Z,0.00
2023-10-24T03:03:00.158Z,0.00
2023-10-24T03:04:00.140Z,0.00
2023-10-24T03:05:00.108Z,0.00
2023-10-24T03:06:00.057Z,0.00
2023-10-24T03:07:00.070Z,0.00
2023-10-24T03:08:00.055Z,0.00
2023-10-24T03:09:00.041Z,0.00
2023-10-24T03:10:00.022Z,0.00
2023-10-24T03:11:00.012Z,0.00
2023-10-24T03:12:00.035Z,0.00
2023-10-24T03:12:59.993Z,0.00
2023-10-24T03:13:59.966Z,0.00
2023-10-24T03:14:59.975Z,0.00
2023-10-24T03:15:59.991Z,0.00
2023-10-24T03:17:00.024Z,0.00
2023-10-24T03:17:59.989Z,0.00
2023-10-24T03:18:59.989Z,0.00
2023-10-24T03:19:59.929Z,0.00
2023-10-24T03:20:59.951Z,0.00
2023-10-24T03:21:59.943Z,0.00
2023-10-24T03:22:59.917Z,0.00
2023-10-24T03:23:59.938Z,0.00
2023-10-24T03:24:59.905Z,0.00
2023-10-24T03:25:59.906Z,0.00
2023-10-24T03:26:59.878Z,0.00
2023-10-24T03:28:00.862Z,0.00
2023-10-24T03:28:59.872Z,0.00
2023-10-24T03:29:59.875Z,0.00
2023-10-24T03:30:59.941Z,0.00
2023-10-24T03:31:59.878Z,0.00
2023-10-24T03:32:59.877Z,0.00
2023-10-24T03:33:59.842Z,0.00
2023-10-24T03:34:59.925Z,0.00
2023-10-24T03:35:59.823Z,0.00
2023-10-24T03:36:59.808Z,0.00
2023-10-24T03:37:59.809Z,0.00
2023-10-24T03:38:59.790Z,0.00
2023-10-24T03:40:00.820Z,0.00
2023-10-24T03:40:59.780Z,0.00
2023-10-24T03:41:59.779Z,0.00
2023-10-24T03:42:59.832Z,0.00
2023-10-24T03:43:59.775Z,0.00
2023-10-24T03:44:59.764Z,0.00
2023-10-24T03:45:59.816Z,0.00
2023-10-24T03:46:59.784Z,0.00
2023-10-24T03:47:59.728Z,0.00
2023-10-24T03:48:59.753Z,0.00
2023-10-24T03:49:59.723Z,0.00
2023-10-24T03:50:59.713Z,0.00
2023-10-24T03:51:59.690Z,0.00
2023-10-24T03:52:59.679Z,0.00
2023-10-24T03:53:59.682Z,0.00
2023-10-24T03:54:59.698Z,0.00
2023-10-24T03:55:59.674Z,0.00
2023-10-24T03:56:59.664Z,0.00
2023-10-24T03:57:59.660Z,0.00
2023-10-24T03:58:59.642Z,0.00
2023-10-24T03:59:59.663Z,0.00
2023-10-24T04:00:59.669Z,0.00
2023-10-24T04:01:59.621Z,0.00
2023-10-24T04:02:59.655Z,0.00
2023-10-24T04:03:59.691Z,0.00
2023-10-24T04:04:59.700Z,0.00
2023-10-24T04:05:59.642Z,0.00
2023-10-24T04:06:59.615Z,0.00
2023-10-24T04:07:59.644Z,0.00
2023-10-24T04:08:59.610Z,0.00
2023-10-24T04:09:59.572Z,0.00
2023-10-24T04:10:59.587Z,0.00
2023-10-24T04:11:59.582Z,0.00
2023-10-24T04:12:59.566Z,0.00
2023-10-24T04:13:59.593Z,0.00
2023-10-24T04:14:59.561Z,0.00
2023-10-24T04:15:59.524Z,0.00
2023-10-24T04:16:59.648Z,0.00
2023-10-24T04:17:59.690Z,0.00
2023-10-24T04:18:59.546Z,0.00
2023-10-24T04:19:59.532Z,0.00
2023-10-24T04:20:59.514Z,0.00
2023-10-24T04:21:59.516Z,0.00
2023-10-24T04:22:59.514Z,0.00
2023-10-24T04:23:59.495Z,0.00
2023-10-24T04:24:59.499Z,0.00
2023-10-24T04:25:59.472Z,0.00
2023-10-24T04:26:59.490Z,0.00
2023-10-24T04:27:59.486Z,0.00
2023-10-24T04:28:59.483Z,0.00
2023-10-24T04:29:59.420Z,0.00
2023-10-24T04:30:59.476Z,0.00
2023-10-24T04:31:59.495Z,0.00
2023-10-24T04:32:59.473Z,0.00
2023-10-24T04:33:59.404Z,0.00
2023-10-24T04:34:59.476Z,0.00
2023-10-24T04:35:59.400Z,0.00
2023-10-24T04:36:59.399Z,0.00
2023-10-24T04:37:59.361Z,0.00
2023-10-24T04:38:59.373Z,0.00
2023-10-24T04:39:59.382Z,0.00
2023-10-24T04:40:59.384Z,0.00
2023-10-24T04:41:59.378Z,0.00
2023-10-24T04:42:59.338Z,0.00
2023-10-24T04:43:59.320Z,0.00
2023-10-24T04:44:59.312Z,0.00
2023-10-24T04:45:59.391Z,0.00
2023-10-24T04:46:59.358Z,0.00
2023-10-24T04:47:59.340Z,0.00
2023-10-24T04:48:59.304Z,0.00
2023-10-24T04:49:59.286Z,0.00
2023-10-24T04:50:59.303Z,0.00
2023-10-24T04:51:59.263Z,0.00
2023-10-24T04:52:59.275Z,0.00
2023-10-24T04:53:59.253Z,0.00
2023-10-24T04:54:59.235Z,0.00
2023-10-24T04:55:59.297Z,0.00
2023-10-24T04:56:59.228Z,0.00
2023-10-24T04:58:32.170Z,0.00
2023-10-24T04:58:59.195Z,0.00
2023-10-24T04:59:59.212Z,0.00
2023-10-24T05:00:59.252Z,0.00
2023-10-24T05:01:59.257Z,0.00
2023-10-24T05:03:00.382Z,0.00
2023-10-24T05:03:59.168Z,0.00
2023-10-24T05:04:59.254Z,0.00
2023-10-24T05:05:59.131Z,0.00
2023-10-24T05:06:59.108Z,0.00
2023-10-24T05:07:59.180Z,0.00
2023-10-24T05:08:59.095Z,0.00
2023-10-24T05:09:59.125Z,0.00
2023-10-24T05:10:59.101Z,0.00
2023-10-24T05:11:59.066Z,0.00
2023-10-24T05:12:59.055Z,0.00
2023-10-24T05:13:59.067Z,0.00
2023-10-24T05:14:59.069Z,0.00
2023-10-24T05:15:59.088Z,0.00
2023-10-24T05:16:59.075Z,0.00
2023-10-24T05:17:59.094Z,0.00
2023-10-24T05:18:59.009Z,0.00
2023-10-24T05:19:59.040Z,0.00
2023-10-24T05:20:58.986Z,0.00
2023-10-24T05:21:58.980Z,0.00
2023-10-24T05:22:59.025Z,0.00
2023-10-24T05:23:58.995Z,0.00
2023-10-24T05:24:59.010Z,0.00
2023-10-24T05:25:59.017Z,0.00
2023-10-24T05:26:58.943Z,0.00
2023-10-24T05:27:58.936Z,0.00
2023-10-24T05:28:58.977Z,0.00
2023-10-24T05:29:58.915Z,0.00
2023-10-24T05:30:58.919Z,0.00
2023-10-24T05:31:59.053Z,0.00
2023-10-24T05:32:58.922Z,0.00
2023-10-24T05:33:58.910Z,0.00
2023-10-24T05:34:58.921Z,0.00
2023-10-24T05:35:58.875Z,0.00
2023-10-24T05:36:58.861Z,0.00
2023-10-24T05:37:58.900Z,0.00
2023-10-24T05:38:58.884Z,0.00
2023-10-24T05:39:58.840Z,0.00
2023-10-24T05:40:58.862Z,0.00
2023-10-24T05:41:58.830Z,0.00
2023-10-24T05:42:58.851Z,0.00
2023-10-24T05:43:58.886Z,0.00
2023-10-24T05:44:58.831Z,0.00
2023-10-24T05:45:58.833Z,0.00
2023-10-24T05:46:58.809Z,0.00
2023-10-24T05:47:58.856Z,4.00
2023-10-24T05:48:58.784Z,4.00
2023-10-24T05:49:58.797Z,4.00
2023-10-24T05:50:58.756Z,4.00
2023-10-24T05:51:58.785Z,4.00
2023-10-24T05:52:58.824Z,4.00
2023-10-24T05:53:58.733Z,4.00
2023-10-24T05:54:58.729Z,4.00
2023-10-24T05:55:58.776Z,4.00
2023-10-24T05:56:58.756Z,0.00
2023-10-24T05:57:58.739Z,4.00
2023-10-24T05:58:58.721Z,4.00
2023-10-24T05:59:58.694Z,4.00
2023-10-24T06:00:58.704Z,4.00
2023-10-24T06:01:58.846Z,4.00
2023-10-24T06:02:58.794Z,8.00
2023-10-24T06:03:58.683Z,4.00
2023-10-24T06:04:58.681Z,8.00
2023-10-24T06:05:58.655Z,8.00
2023-10-24T06:06:58.668Z,8.00
2023-10-24T06:07:58.668Z,8.00
2023-10-24T06:08:58.626Z,8.00
2023-10-24T06:09:58.631Z,8.00
2023-10-24T06:10:58.668Z,8.00
2023-10-24T06:11:58.638Z,8.00
2023-10-24T06:12:58.603Z,16.00
2023-10-24T06:13:58.645Z,16.00
2023-10-24T06:14:58.577Z,20.00
2023-10-24T06:15:58.683Z,24.00
2023-10-24T06:16:58.578Z,24.00
2023-10-24T06:17:58.607Z,24.00
2023-10-24T06:18:58.562Z,24.00
2023-10-24T06:19:58.570Z,24.00
2023-10-24T06:20:58.562Z,20.00
2023-10-24T06:21:58.527Z,20.00
2023-10-24T06:22:58.586Z,24.00
2023-10-24T06:23:58.516Z,28.00
2023-10-24T06:24:58.526Z,32.00
2023-10-24T06:25:58.573Z,36.00
2023-10-24T06:26:58.493Z,36.00
2023-10-24T06:27:58.483Z,40.00
2023-10-24T06:28:58.531Z,40.00
2023-10-24T06:29:58.503Z,40.00
2023-10-24T06:30:58.526Z,40.00
2023-10-24T06:31:58.506Z,44.00
2023-10-24T06:32:58.503Z,48.00
2023-10-24T06:33:58.466Z,48.00
2023-10-24T06:34:58.520Z,48.00
2023-10-24T06:35:58.419Z,52.00
2023-10-24T06:36:58.417Z,56.00
2023-10-24T06:37:58.432Z,56.00
2023-10-24T06:38:58.408Z,64.00
2023-10-24T06:39:58.430Z,68.00
2023-10-24T06:40:58.414Z,72.00
2023-10-24T06:41:58.395Z,72.00
2023-10-24T06:42:58.378Z,72.00
2023-10-24T06:43:58.413Z,80.00
2023-10-24T06:44:58.386Z,88.00
2023-10-24T06:45:58.394Z,96.00
2023-10-24T06:46:58.373Z,104.00
2023-10-24T06:47:58.374Z,112.00
2023-10-24T06:48:58.370Z,124.00
2023-10-24T06:49:58.407Z,128.00
2023-10-24T06:50:58.318Z,140.00
2023-10-24T06:51:58.307Z,148.00
2023-10-24T06:52:58.321Z,160.00
2023-10-24T06:53:58.328Z,168.00
2023-10-24T06:54:58.299Z,168.00
2023-10-24T06:55:58.362Z,172.00
2023-10-24T06:56:58.286Z,180.00
2023-10-24T06:57:58.291Z,184.00
2023-10-24T06:58:58.310Z,184.00
2023-10-24T06:59:58.268Z,188.00
2023-10-24T07:00:58.353Z,196.00
2023-10-24T07:01:58.284Z,208.00
2023-10-24T07:02:58.388Z,216.00
2023-10-24T07:03:58.266Z,228.00
2023-10-24T07:04:58.277Z,236.00
2023-10-24T07:05:58.216Z,240.00
2023-10-24T07:06:58.232Z,248.00
2023-10-24T07:07:58.252Z,252.00
2023-10-24T07:08:58.196Z,256.00
2023-10-24T07:09:58.183Z,256.00
2023-10-24T07:10:58.220Z,256.00
2023-10-24T07:11:58.193Z,248.00
2023-10-24T07:12:58.192Z,248.00
2023-10-24T07:13:58.239Z,240.00
2023-10-24T07:14:58.147Z,236.00
2023-10-24T07:15:58.187Z,232.00
2023-10-24T07:16:58.186Z,224.00
2023-10-24T07:17:58.174Z,212.00
2023-10-24T07:18:58.105Z,204.00
2023-10-24T07:19:58.165Z,200.00
2023-10-24T07:20:58.112Z,204.00
2023-10-24T07:21:58.123Z,212.00
2023-10-24T07:22:58.181Z,216.00
2023-10-24T07:23:58.065Z,224.00
2023-10-24T07:24:58.065Z,228.00
2023-10-24T07:25:58.153Z,232.00
2023-10-24T07:26:58.077Z,232.00
2023-10-24T07:27:58.041Z,236.00
2023-10-24T07:28:58.079Z,236.00
2023-10-24T07:29:58.028Z,236.00
2023-10-24T07:30:58.115Z,244.00
2023-10-24T07:31:58.097Z,252.00
2023-10-24T07:32:58.022Z,252.00
2023-10-24T07:33:57.997Z,260.00
2023-10-24T07:34:58.114Z,268.00
2023-10-24T07:35:58.008Z,276.00
2023-10-24T07:36:58.019Z,284.00
2023-10-24T07:37:57.999Z,288.00
2023-10-24T07:38:58.003Z,292.00
2023-10-24T07:39:58.014Z,296.00
2023-10-24T07:40:58.054Z,304.00
2023-10-24T07:41:57.937Z,308.00
2023-10-24T07:42:57.924Z,312.00
2023-10-24T07:43:57.932Z,316.00
2023-10-24T07:44:57.960Z,324.00
2023-10-24T07:45:57.902Z,336.00
2023-10-24T07:46:57.948Z,344.00
2023-10-24T07:47:57.906Z,356.00
2023-10-24T07:48:57.889Z,368.00
2023-10-24T07:49:57.937Z,376.00
2023-10-24T07:50:57.884Z,388.00
2023-10-24T07:51:57.856Z,396.00
2023-10-24T07:52:57.891Z,396.00
2023-10-24T07:53:57.915Z,404.00
2023-10-24T07:54:57.854Z,404.00
2023-10-24T07:55:57.853Z,404.00
2023-10-24T07:56:59.547Z,404.00
2023-10-24T07:57:58.807Z,408.00
2023-10-24T07:58:57.894Z,408.00
2023-10-24T07:59:57.811Z,416.00
2023-10-24T08:00:57.782Z,420.00
2023-10-24T08:01:57.841Z,428.00
2023-10-24T08:02:59.239Z,428.00
2023-10-24T08:03:58.822Z,428.00
2023-10-24T08:04:57.806Z,432.00
2023-10-24T08:05:57.748Z,440.00
2023-10-24T08:06:57.743Z,444.00
2023-10-24T08:07:57.777Z,452.00
2023-10-24T08:08:57.765Z,460.00
2023-10-24T08:09:57.721Z,464.00
2023-10-24T08:10:57.736Z,468.00
2023-10-24T08:11:57.721Z,476.00
2023-10-24T08:12:57.750Z,484.00
2023-10-24T08:13:57.744Z,488.00
2023-10-24T08:14:57.683Z,492.00
2023-10-24T08:15:57.681Z,500.00
2023-10-24T08:16:57.729Z,508.00
2023-10-24T08:17:57.730Z,516.00
2023-10-24T08:18:57.648Z,524.00
2023-10-24T08:19:57.661Z,532.00
2023-10-24T08:20:57.637Z,540.00
2023-10-24T08:21:57.663Z,548.00
2023-10-24T08:22:57.657Z,556.00
2023-10-24T08:23:58.616Z,564.00
2023-10-24T08:24:57.616Z,568.00
2023-10-24T08:25:57.600Z,576.00
2023-10-24T08:27:10.612Z,584.00
2023-10-24T08:27:59.611Z,592.00
2023-10-24T08:28:57.639Z,596.00
2023-10-24T08:29:57.578Z,600.00
2023-10-24T08:30:57.584Z,608.00
2023-10-24T08:32:00.746Z,620.00
2023-10-24T08:32:58.665Z,640.00
2023-10-24T08:33:57.540Z,656.00
2023-10-24T08:34:57.596Z,672.00
2023-10-24T08:35:57.522Z,684.00
2023-10-24T08:36:57.546Z,696.00
2023-10-24T08:37:57.582Z,708.00
2023-10-24T08:38:57.495Z,724.00
2023-10-24T08:39:57.490Z,740.00
2023-10-24T08:40:57.573Z,768.00
2023-10-24T08:41:57.496Z,800.00
2023-10-24T08:42:57.510Z,828.00
2023-10-24T08:43:57.469Z,860.00
2023-10-24T08:44:57.450Z,884.00
2023-10-24T08:45:57.465Z,900.00
2023-10-24T08:46:57.582Z,912.00
2023-10-24T08:47:57.475Z,924.00
2023-10-24T08:48:58.399Z,924.00
2023-10-24T08:49:57.449Z,920.00
2023-10-24T08:50:57.451Z,912.00
2023-10-24T08:51:57.399Z,892.00
2023-10-24T08:52:57.405Z,860.00
2023-10-24T08:53:57.381Z,820.00
2023-10-24T08:54:57.363Z,784.00
2023-10-24T08:55:57.432Z,752.00
2023-10-24T08:56:57.357Z,728.00
2023-10-24T08:57:57.353Z,712.00
2023-10-24T08:58:57.384Z,708.00
2023-10-24T08:59:57.381Z,708.00
2023-10-24T09:00:57.371Z,708.00
2023-10-24T09:01:57.328Z,704.00
2023-10-24T09:02:57.388Z,696.00
2023-10-24T09:03:57.327Z,688.00
2023-10-24T09:04:57.322Z,680.00
2023-10-24T09:05:57.310Z,680.00
2023-10-24T09:06:57.285Z,668.00
2023-10-24T09:07:57.330Z,668.00
2023-10-24T09:08:57.266Z,664.00
2023-10-24T09:09:57.282Z,660.00
2023-10-24T09:10:57.270Z,652.00
2023-10-24T09:11:57.237Z,652.00
2023-10-24T09:12:57.238Z,644.00
2023-10-24T09:13:59.052Z,640.00
2023-10-24T09:14:58.373Z,636.00
2023-10-24T09:15:57.212Z,628.00
2023-10-24T09:16:57.232Z,624.00
2023-10-24T09:17:57.395Z,628.00
2023-10-24T09:18:57.234Z,644.00
2023-10-24T09:19:57.255Z,664.00
2023-10-24T09:20:57.167Z,688.00
2023-10-24T09:22:06.814Z,720.00
2023-10-24T09:22:59.205Z,744.00
2023-10-24T09:23:57.227Z,764.00
2023-10-24T09:24:58.524Z,780.00
2023-10-24T09:25:58.184Z,788.00
2023-10-24T09:26:57.156Z,792.00
2023-10-24T09:27:57.123Z,792.00
2023-10-24T09:28:57.165Z,788.00
2023-10-24T09:29:57.117Z,780.00
2023-10-24T09:30:57.111Z,776.00
2023-10-24T09:31:57.132Z,768.00
2023-10-24T09:32:57.204Z,756.00
2023-10-24T09:33:57.098Z,748.00
2023-10-24T09:34:57.105Z,740.00
2023-10-24T09:36:11.906Z,736.00
2023-10-24T09:36:59.059Z,724.00
2023-10-24T09:37:57.135Z,720.00
2023-10-24T09:38:57.035Z,712.00
2023-10-24T09:39:57.056Z,700.00
2023-10-24T09:40:57.360Z,688.00
2023-10-24T09:41:57.395Z,676.00
2023-10-24T09:42:57.567Z,660.00
2023-10-24T09:43:57.051Z,648.00
2023-10-24T09:44:56.993Z,628.00
2023-10-24T09:45:56.998Z,612.00
2023-10-24T09:46:58.095Z,596.00
2023-10-24T09:47:57.041Z,584.00
2023-10-24T09:48:56.952Z,576.00
2023-10-24T09:49:57.099Z,576.00
2023-10-24T09:50:56.950Z,592.00
2023-10-24T09:51:56.966Z,608.00
2023-10-24T09:52:57.017Z,636.00
2023-10-24T09:53:56.927Z,652.00
2023-10-24T09:54:57.050Z,664.00
2023-10-24T09:55:56.909Z,668.00
2023-10-24T09:56:56.945Z,660.00
2023-10-24T09:57:56.905Z,652.00
2023-10-24T09:58:56.911Z,644.00
2023-10-24T09:59:56.875Z,640.00
2023-10-24T10:00:56.862Z,640.00
2023-10-24T10:02:07.564Z,636.00
2023-10-24T10:02:59.097Z,636.00
2023-10-24T10:03:57.108Z,644.00
2023-10-24T10:04:57.053Z,648.00
2023-10-24T10:05:56.930Z,644.00
2023-10-24T10:07:01.311Z,640.00
2023-10-24T10:07:58.835Z,632.00
2023-10-24T10:08:56.807Z,620.00
2023-10-24T10:09:56.868Z,604.00
2023-10-24T10:10:56.884Z,584.00
2023-10-24T10:11:56.784Z,576.00
2023-10-24T10:12:56.781Z,552.00
2023-10-24T10:13:56.797Z,504.00
2023-10-24T10:14:56.756Z,468.00
2023-10-24T10:15:56.792Z,420.00
2023-10-24T10:16:56.827Z,384.00
2023-10-24T10:17:56.759Z,368.00
2023-10-24T10:18:56.720Z,372.00
2023-10-24T10:19:56.781Z,372.00
2023-10-24T10:20:56.744Z,360.00
2023-10-24T10:21:56.702Z,340.00
2023-10-24T10:22:56.736Z,328.00
2023-10-24T10:23:57.741Z,332.00
2023-10-24T10:24:56.703Z,332.00
2023-10-24T10:25:56.755Z,352.00
2023-10-24T10:26:56.657Z,372.00
2023-10-24T10:27:56.653Z,392.00
2023-10-24T10:28:56.661Z,400.00
2023-10-24T10:30:02.986Z,408.00
2023-10-24T10:32:35.928Z,396.00
2023-10-24T10:32:38.332Z,392.00
2023-10-24T10:33:03.262Z,384.00
2023-10-24T10:33:57.756Z,368.00
2023-10-24T10:34:56.783Z,360.00
2023-10-24T10:35:56.797Z,376.00
2023-10-24T10:36:56.594Z,392.00
2023-10-24T10:37:56.612Z,396.00
2023-10-24T10:38:56.595Z,412.00
2023-10-24T10:39:57.567Z,424.00
2023-10-24T10:40:56.733Z,432.00
2023-10-24T10:41:56.556Z,420.00
2023-10-24T10:42:56.539Z,396.00
2023-10-24T10:43:56.599Z,372.00
2023-10-24T10:44:56.532Z,360.00
2023-10-24T10:45:56.539Z,388.00
2023-10-24T10:46:56.561Z,436.00
2023-10-24T10:47:56.542Z,468.00
2023-10-24T10:48:56.538Z,512.00
2023-10-24T10:49:56.523Z,560.00
2023-10-24T10:50:56.486Z,588.00
2023-10-24T10:51:56.486Z,604.00
2023-10-24T10:52:56.564Z,604.00
2023-10-24T10:53:56.462Z,604.00
2023-10-24T10:54:56.452Z,604.00
2023-10-24T10:55:56.485Z,600.00
2023-10-24T10:56:56.436Z,600.00
2023-10-24T10:58:28.390Z,596.00
2023-10-24T10:58:56.437Z,584.00
2023-10-24T10:59:56.419Z,572.00
2023-10-24T11:00:56.418Z,556.00
2023-10-24T11:01:56.535Z,544.00
2023-10-24T11:02:56.478Z,552.00
2023-10-24T11:03:56.479Z,560.00
2023-10-24T11:04:56.448Z,576.00
2023-10-24T11:05:56.371Z,588.00
2023-10-24T11:06:56.383Z,592.00
2023-10-24T11:07:56.653Z,584.00
2023-10-24T11:08:56.389Z,588.00
2023-10-24T11:09:56.378Z,580.00
2023-10-24T11:10:56.654Z,572.00
2023-10-24T11:11:56.345Z,576.00
2023-10-24T11:12:56.309Z,572.00
2023-10-24T11:13:56.351Z,564.00
2023-10-24T11:14:56.306Z,540.00
2023-10-24T11:15:56.403Z,512.00
2023-10-24T11:16:56.386Z,492.00
2023-10-24T11:17:56.396Z,496.00
2023-10-24T11:18:56.266Z,508.00
2023-10-24T11:20:09.260Z,520.00
2023-10-24T11:20:58.282Z,516.00
2023-10-24T11:21:57.172Z,504.00
2023-10-24T11:22:56.259Z,476.00
2023-10-24T11:23:56.247Z,480.00
2023-10-24T11:24:56.239Z,484.00
2023-10-24T11:25:56.278Z,512.00
2023-10-24T11:26:56.222Z,544.00
2023-10-24T11:27:56.204Z,572.00
2023-10-24T11:28:56.267Z,592.00
2023-10-24T11:29:56.191Z,588.00
2023-10-24T11:30:56.205Z,580.00
2023-10-24T11:31:56.201Z,544.00
2023-10-24T11:32:56.203Z,488.00
2023-10-24T11:33:56.151Z,440.00
2023-10-24T11:34:56.224Z,412.00
2023-10-24T11:35:56.232Z,420.00
2023-10-24T11:36:56.132Z,428.00
2023-10-24T11:37:56.153Z,448.00
2023-10-24T11:38:56.118Z,452.00
2023-10-24T11:39:56.138Z,432.00
2023-10-24T11:40:56.296Z,392.00
2023-10-24T11:41:56.097Z,340.00
2023-10-24T11:42:56.951Z,276.00
2023-10-24T11:43:56.139Z,228.00
2023-10-24T11:44:56.104Z,200.00
2023-10-24T11:45:56.088Z,172.00
2023-10-24T11:46:56.105Z,152.00
2023-10-24T11:47:56.076Z,144.00
2023-10-24T11:48:56.097Z,136.00
2023-10-24T11:49:56.056Z,136.00
2023-10-24T11:50:56.035Z,140.00
2023-10-24T11:51:56.024Z,144.00
2023-10-24T11:52:56.097Z,152.00
2023-10-24T11:53:56.036Z,156.00
2023-10-24T11:54:55.997Z,164.00
2023-10-24T11:55:56.014Z,164.00
2023-10-24T11:56:55.981Z,168.00
2023-10-24T11:57:56.000Z,164.00
2023-10-24T11:58:56.043Z,164.00
2023-10-24T11:59:55.952Z,164.00
2023-10-24T12:00:55.961Z,160.00
2023-10-24T12:01:56.017Z,164.00
2023-10-24T12:02:56.035Z,164.00
2023-10-24T12:03:55.944Z,164.00
2023-10-24T12:04:55.977Z,164.00
2023-10-24T12:05:55.956Z,168.00
2023-10-24T12:06:55.898Z,172.00
2023-10-24T12:07:55.990Z,180.00
2023-10-24T12:08:55.887Z,184.00
2023-10-24T12:09:55.880Z,180.00
2023-10-24T12:10:56.004Z,180.00
2023-10-24T12:11:55.861Z,180.00
2023-10-24T12:12:55.883Z,184.00
2023-10-24T12:13:55.876Z,188.00
2023-10-24T12:14:55.843Z,200.00
2023-10-24T12:15:55.891Z,204.00
2023-10-24T12:16:59.615Z,200.00
2023-10-24T12:17:56.933Z,200.00
2023-10-24T12:18:55.812Z,196.00
2023-10-24T12:19:55.818Z,184.00
2023-10-24T12:20:55.795Z,176.00
2023-10-24T12:21:55.816Z,172.00
2023-10-24T12:22:55.849Z,168.00
2023-10-24T12:23:55.764Z,168.00
2023-10-24T12:24:55.761Z,172.00
2023-10-24T12:25:55.817Z,180.00
2023-10-24T12:26:55.767Z,188.00
2023-10-24T12:27:55.732Z,204.00
2023-10-24T12:28:55.755Z,212.00
2023-10-24T12:29:55.717Z,220.00
2023-10-24T12:30:55.747Z,240.00
2023-10-24T12:31:55.845Z,268.00
2023-10-24T12:32:55.717Z,316.00
2023-10-24T12:33:55.689Z,360.00
2023-10-24T12:34:55.810Z,392.00
2023-10-24T12:35:57.210Z,424.00
2023-10-24T12:36:55.678Z,452.00
2023-10-24T12:37:55.741Z,472.00
2023-10-24T12:38:55.651Z,484.00
2023-10-24T12:39:55.644Z,500.00
2023-10-24T12:40:55.791Z,516.00
2023-10-24T12:41:55.681Z,520.00
2023-10-24T12:42:55.621Z,512.00
2023-10-24T12:43:55.665Z,500.00
2023-10-24T12:44:55.600Z,476.00
2023-10-24T12:45:55.724Z,448.00
2023-10-24T12:46:55.666Z,420.00
2023-10-24T12:47:55.611Z,400.00
2023-10-24T12:49:02.038Z,384.00
2023-10-24T12:49:57.619Z,372.00
2023-10-24T12:50:56.582Z,364.00
2023-10-24T12:51:56.552Z,368.00